Flight Track Log - Related Links

Times and Time Zones

All times are in EDT time to prevent confusion due to time zone crossing. See the ASQ5859 flight status page for this flight to view local times or setup timezone preferences in your user account.

Time Position Orientation Groundspeed Altitude Reporting Facility
EDT Latitude Longitude Course Direction KTS MPH feet Rate Location/Type
Mon 06:26:16 PM 44.4914 -73.3103 259° West 230 265 4,300  Level Boston Center
Mon 06:27:00 PM 44.3512 -73.4240 260° West  Level FlightAware Approximate
Mon 06:27:16 PM 44.4739 -73.4089 256° West 230 265 6,900  Level Boston Center
Mon 06:28:00 PM 44.3323 -73.5473 256° West  Level FlightAware Approximate
Mon 06:28:16 PM 44.4564 -73.4986 255° West 264 304 8,600  Level Boston Center
Mon 06:29:00 PM 44.3110 -73.6702 258° West  Level FlightAware Approximate
Mon 06:29:16 PM 44.4367 -73.6058 256° West 274 315 10,100  Level Boston Center
Mon 06:30:00 PM 44.2920 -73.7938 258° West  Level FlightAware Approximate
Mon 06:30:16 PM 44.4144 -73.7306 256° West 310 357 10,700  Level Boston Center
Mon 06:31:00 PM 44.2742 -73.9177 259° West  Level FlightAware Approximate
Mon 06:31:16 PM 44.3858 -73.8750 255° West 345 397 11,500  Level Boston Center
Mon 06:32:16 PM 44.3589 -74.0139 255° West 361 415 12,300 750 Climbing Boston Center
Mon 06:33:16 PM 44.3364 -74.1381 256° West 368 423 13,000 750 Climbing Boston Center
Mon 06:34:16 PM 44.3092 -74.2736 254° West 374 430 13,800 800 Climbing Boston Center
Mon 06:35:16 PM 44.2839 -74.4150 256° West 374 430 14,600 900 Climbing Boston Center
Mon 06:36:16 PM 44.2567 -74.5503 254° West 374 430 15,600 900 Climbing Boston Center
Mon 06:37:16 PM 44.2308 -74.6914 256° West 374 430 16,400 750 Climbing Boston Center
Mon 06:38:16 PM 44.2031 -74.8322 255° West 374 430 17,100 950 Climbing Boston Center
Mon 06:39:16 PM 44.1753 -74.9700 254° West 374 430 18,300 1,600 Climbing Boston Center
Mon 06:40:16 PM 44.1514 -75.1022 256° West 368 423 20,300 1,950 Climbing Boston Center
Mon 06:41:16 PM 44.1275 -75.2225 255° West 355 409 22,200 1,950 Climbing Boston Center
Mon 06:42:16 PM 44.0897 -75.3278 243° Southwest 327 376 24,200 1,300 Climbing Boston Center
Mon 06:43:16 PM 44.0658 -75.4394 253° West 309 356 24,800 600 Climbing Boston Center
Mon 06:44:16 PM 44.0414 -75.5797 256° West 323 372 25,400 550 Climbing Boston Center
Mon 06:45:16 PM 44.0189 -75.7142 257° West 347 399 25,900 500 Climbing Boston Center
Mon 06:46:16 PM 43.9939 -75.8572 256° West 363 418 26,400 500 Climbing Boston Center
Mon 06:47:16 PM 43.9686 -76.0000 256° West 381 438 26,900 500 Climbing Boston Center
Mon 06:48:16 PM 43.9472 -76.1517 259° West 395 455 27,400 450 Climbing Boston Center
Mon 06:49:16 PM 43.9339 -76.3039 263° West 400 460 27,800 450 Climbing Boston Center
Mon 06:50:16 PM 43.9203 -76.4558 263° West 405 466 28,300 600 Climbing Boston Center
Mon 06:51:16 PM 43.9083 -76.6106 264° West 405 466 29,000 700 Climbing Boston Center
Mon 06:52:16 PM 43.8922 -76.7653 262° West 405 466 29,700 676 Climbing Boston Center
Mon 06:53:38 PM 43.8667 -76.9500 259° West 410 472 30,600 676 Climbing Toronto Center
Mon 06:54:38 PM 43.8333 -77.1167 255° West 410 472 31,300 700 Climbing Toronto Center
Mon 06:55:38 PM 43.8167 -77.2833 262° West 410 472 32,000 650 Climbing Toronto Center
Mon 06:56:38 PM 43.8167 -77.4167 270° West 410 472 32,600 650 Climbing Toronto Center
Mon 06:57:38 PM 43.8000 -77.6000 263° West 420 483 33,300 650 Climbing Toronto Center
Mon 06:58:38 PM 43.7833 -77.7333 260° West 420 483 33,900 650 Climbing Toronto Center
Mon 06:59:38 PM 43.7667 -77.9000 262° West 420 483 34,600 700 Climbing Toronto Center
Mon 07:00:38 PM 43.7500 -78.0667 262° West 430 495 35,300 650 Climbing Toronto Center
Mon 07:01:38 PM 43.7167 -78.2333 255° West 430 495 35,900 350 Climbing Toronto Center
Mon 07:02:38 PM 43.7000 -78.4167 263° West 430 495 36,000 50 Climbing Toronto Center
Mon 07:03:38 PM 43.7000 -78.5667 270° West 440 506 36,000  Level Toronto Center
Mon 07:04:38 PM 43.6833 -78.7333 262° West 440 506 36,000  Level Toronto Center
Mon 07:05:38 PM 43.6667 -78.9000 262° West 440 506 36,000  Level Toronto Center
Mon 07:06:38 PM 43.6500 -79.0500 261° West 440 506 36,000  Level Toronto Center
Mon 07:07:38 PM 43.6333 -79.2167 262° West 430 495 36,000  Level Toronto Center
Mon 07:08:38 PM 43.6167 -79.3833 262° West 430 495 36,000  Level Toronto Center
Mon 07:09:38 PM 43.6000 -79.5667 263° West 430 495 36,000  Level Toronto Center
Mon 07:10:38 PM 43.5833 -79.7333 262° West 440 506 36,000  Level Toronto Center
Mon 07:11:38 PM 43.5667 -79.8833 261° West 430 495 36,000  Level Toronto Center
Mon 07:12:38 PM 43.5500 -80.0500 262° West 430 495 36,000  Level Toronto Center
Mon 07:13:38 PM 43.5333 -80.2000 261° West 430 495 36,000  Level Toronto Center
Mon 07:14:38 PM 43.5167 -80.3833 263° West 430 495 36,000  Level Toronto Center
Mon 07:15:38 PM 43.5000 -80.5500 262° West 440 506 36,000  Level Toronto Center
Mon 07:16:38 PM 43.4833 -80.7167 262° West 440 506 36,000  Level Toronto Center
Mon 07:17:38 PM 43.4500 -80.8667 253° West 440 506 36,000  Level Toronto Center
Mon 07:18:38 PM 43.4500 -81.0333 270° West 430 495 36,000  Level Toronto Center
Mon 07:19:38 PM 43.5167 -81.1667 305° West 440 506 36,000  Level Toronto Center
Mon 07:20:38 PM 43.6500 -81.2500 336° Northwest 440 506 36,000  Level Toronto Center
Mon 07:21:38 PM 43.7500 -81.3000 340° North 440 506 36,000  Level Toronto Center
Mon 07:22:38 PM 43.7833 -81.4500 287° West 430 495 36,000  Level Toronto Center
Mon 07:23:38 PM 43.7333 -81.6167 248° West 430 495 36,000  Level Toronto Center
Mon 07:24:38 PM 43.7000 -81.7833 255° West 430 495 36,000  Level Toronto Center
Mon 07:25:38 PM 43.6667 -81.9167 251° West 430 495 36,000  Level Toronto Center
Mon 07:26:38 PM 43.6000 -82.0667 238° Southwest 430 495 36,000  Level Toronto Center
Mon 07:27:38 PM 43.5667 -82.2333 255° West 430 495 36,000  Level Toronto Center
Mon 07:28:38 PM 43.5333 -82.3667 251° West 430 495 36,000  Level Toronto Center
Mon 07:29:38 PM 43.4833 -82.5333 248° West 430 495 36,000  Level Toronto Center
Mon 07:30:38 PM 43.4333 -82.6833 245° Southwest 430 495 36,000  Level Toronto Center
Mon 07:31:38 PM 43.3833 -82.8500 248° West 440 506 36,000 -550 Level Toronto Center
Mon 07:32:38 PM 43.3667 -83.0000 261° West 430 495 34,900 -1,000 Descending Toronto Center
Mon 07:33:38 PM 43.3500 -83.1667 262° West 420 483 34,000 -450 Descending Toronto Center
Mon 07:34:38 PM 43.3000 -83.3167 245° Southwest 430 495 34,000  Level Toronto Center
Mon 07:35:38 PM 43.2833 -83.5000 263° West 440 506 34,000  Level Toronto Center
Mon 07:36:38 PM 43.2667 -83.6333 260° West 430 495 34,000  Level Toronto Center
Mon 07:37:38 PM 43.2333 -83.8167 256° West 430 495 34,000  Level Toronto Center
Mon 07:38:38 PM 43.2000 -83.9833 255° West 440 506 34,000 -100 Level Toronto Center
Mon 07:39:38 PM 43.1833 -84.1333 261° West 430 495 33,800 -600 Descending Toronto Center
Mon 07:40:38 PM 43.1500 -84.3000 255° West 430 495 32,800 -900 Descending Toronto Center
Mon 07:41:38 PM 43.1333 -84.4500 261° West 430 495 32,000 -400 Descending Toronto Center
Mon 07:42:38 PM 43.1000 -84.6167 255° West 440 506 32,000  Level Toronto Center
Mon 07:43:38 PM 43.0667 -84.7667 253° West 440 506 32,000  Level Toronto Center
Mon 07:44:38 PM 43.0167 -84.9500 250° West 440 506 32,000  Level Toronto Center
Mon 07:45:38 PM 43.0000 -85.1000 261° West 430 495 32,000 -517 Level Toronto Center
Mon 07:47:09 PM 42.9606 -85.3150 256° West 450 518 30,700 -941 Descending Chicago Center
Mon 07:48:11 PM 42.9086 -85.4725 246° West 455 524 29,600 -1,742 Descending Chicago Center
Mon 07:49:13 PM 42.8464 -85.6622 246° West 455 524 27,100 -2,274 Descending Chicago Center
Mon 07:50:15 PM 42.7964 -85.8172 246° West 446 513 24,900 -2,226 Descending Chicago Center
Mon 07:51:17 PM 42.7467 -85.9661 246° West 431 496 22,500 -2,177 Descending Chicago Center
Mon 07:52:19 PM 42.6997 -86.1086 246° West 414 476 20,400 -1,210 Descending Chicago Center
Mon 07:53:21 PM 42.6536 -86.2492 246° West 406 467 20,000 -484 Descending Chicago Center
Mon 07:54:23 PM 42.6217 -86.3944 253° West 403 464 19,400 -774 Descending Chicago Center
Mon 07:55:25 PM 42.5939 -86.5439 256° West 409 471 18,400 -1,355 Descending Chicago Center
Mon 07:56:27 PM 42.5628 -86.7128 256° West 395 455 16,600 -1,872 Descending Chicago Center
Mon 07:57:30 PM 42.5272 -86.8514 251° West 379 436 14,500 -1,920 Descending Chicago Center
Mon 07:58:32 PM 42.4914 -86.9794 249° West 366 421 12,600 -1,887 Descending Chicago Center
Mon 07:59:34 PM 42.4572 -87.0989 249° West 343 395 10,600 -1,548 Descending Chicago Center
Mon 08:00:36 PM 42.4292 -87.2033 250° West 299 344 9,400 -774 Descending Chicago Center
Mon 08:01:38 PM 42.4006 -87.2983 248° West 279 321 9,000 -194 Descending Chicago Center
Mon 08:02:40 PM 42.3475 -87.3947 233° Southwest 281 323 9,000  Level Chicago Center
Mon 08:03:42 PM 42.3017 -87.4808 234° Southwest 283 326 9,000 -484 Level Chicago Center
Mon 08:04:44 PM 42.2558 -87.5611 232° Southwest 275 316 8,000 -1,452 Descending Chicago Center
Mon 08:05:46 PM 42.2058 -87.6561 235° Southwest 262 302 6,000 -1,645 Descending Chicago Center
Mon 08:06:48 PM 42.1561 -87.7244 226° Southwest 260 299 4,600 -1,248 Descending Chicago Center
Mon 08:07:51 PM 42.1008 -87.7839 219° Southwest 254 292 3,400 -1,200 Descending Chicago Center
Mon 08:08:53 PM 42.0469 -87.8431 219° Southwest 254 292 2,100 -1,065 Descending Chicago Center
Mon 08:09:55 PM 42.0136 -87.8792 219° Southwest 190 219 1,200 -871 Descending Chicago Center
Mon 08:11:00 PM 41.9817 -87.9067 206° Southwest  Level Estimated

Login

Don't have an account? Register now (free) for customized features, flight alerts, and more!